createdAt,value
2019-04-14T00:02:25.771Z,38.35
2019-04-14T00:04:57.205Z,35.85
2019-04-14T00:07:27.648Z,37.05
2019-04-14T00:09:58.512Z,39.33
2019-04-14T00:12:27.905Z,38.70
2019-04-14T00:14:57.574Z,37.58
2019-04-14T00:17:26.970Z,37.90
2019-04-14T00:19:56.681Z,37.20
2019-04-14T00:22:28.056Z,38.25
2019-04-14T00:24:57.525Z,37.95
2019-04-14T00:27:28.112Z,35.77
2019-04-14T00:29:57.509Z,36.95
2019-04-14T00:32:29.004Z,37.63
2019-04-14T00:35:06.114Z,36.55
2019-04-14T00:37:42.754Z,36.50
2019-04-14T00:40:14.966Z,36.77
2019-04-14T00:42:47.277Z,37.05
2019-04-14T00:45:37.025Z,37.05
2019-04-14T00:48:07.900Z,37.45
2019-04-14T00:50:34.268Z,37.90
2019-04-14T00:53:03.737Z,38.80
2019-04-14T00:55:33.550Z,37.80
2019-04-14T00:58:03.841Z,36.50
2019-04-14T01:00:34.181Z,37.08
2019-04-14T01:03:04.687Z,37.15
2019-04-14T01:05:34.881Z,37.23
2019-04-14T01:08:05.466Z,39.05
2019-04-14T01:10:34.874Z,37.65
2019-04-14T01:13:05.810Z,38.40
2019-04-14T01:15:50.120Z,39.05
2019-04-14T01:18:07.797Z,38.40
2019-04-14T01:23:06.355Z,37.78
2019-04-14T01:25:36.807Z,39.65
2019-04-14T01:28:06.810Z,36.83
2019-04-14T01:30:37.210Z,38.60
2019-04-14T01:33:07.629Z,37.83
2019-04-14T01:35:37.907Z,40.12
2019-04-14T03:08:25.844Z,37.85
2019-04-14T03:10:55.728Z,37.75
2019-04-14T03:13:29.311Z,37.38
2019-04-14T03:18:47.184Z,39.25
2019-04-14T03:21:28.019Z,39.42
2019-04-14T03:23:51.905Z,39.18
2019-04-14T03:26:19.796Z,39.55
2019-04-14T03:28:51.596Z,38.35
2019-04-14T03:39:17.587Z,38.83
2019-04-14T03:41:29.761Z,39.30
2019-04-14T03:44:03.342Z,37.88
2019-04-14T03:46:41.665Z,39.55
2019-04-14T03:49:10.014Z,38.00
2019-04-14T03:54:15.654Z,38.25
2019-04-14T03:56:51.365Z,39.18
2019-04-14T03:59:21.910Z,36.95
2019-04-14T04:01:52.294Z,37.17
2019-04-14T04:04:22.767Z,41.53
2019-04-14T04:06:53.172Z,37.20
2019-04-14T04:09:25.707Z,39.38
2019-04-14T04:11:56.225Z,38.15
2019-04-14T04:14:26.946Z,38.85
2019-04-14T04:19:42.619Z,36.48
2019-04-14T04:22:32.494Z,38.02
2019-04-14T04:25:03.612Z,35.73
2019-04-14T04:27:50.501Z,36.93
2019-04-14T04:30:21.545Z,36.38
2019-04-14T04:32:55.813Z,38.10
2019-04-14T04:35:28.136Z,40.67
2019-04-14T04:38:07.869Z,37.75
2019-04-14T04:40:37.582Z,38.28
2019-04-14T04:43:07.970Z,40.10
2019-04-14T04:45:37.359Z,39.63
2019-04-14T04:48:06.748Z,37.40
2019-04-14T04:50:36.830Z,37.30
2019-04-14T04:53:06.977Z,40.35
2019-04-14T04:55:37.348Z,39.35
2019-04-14T04:58:07.790Z,38.58
2019-04-14T05:00:37.386Z,39.75
2019-04-14T05:03:07.709Z,39.60
2019-04-14T05:06:13.928Z,40.08
2019-04-14T05:08:48.056Z,39.40
2019-04-14T05:11:21.577Z,40.15
2019-04-14T05:13:51.858Z,40.43
2019-04-14T05:16:21.415Z,41.35
2019-04-14T05:18:50.981Z,39.58
2019-04-14T05:21:21.490Z,42.13
2019-04-14T05:23:51.680Z,40.58
2019-04-14T05:26:22.070Z,40.65
2019-04-14T05:28:52.671Z,41.92
2019-04-14T05:31:22.870Z,42.30
2019-04-14T05:33:53.335Z,41.73
2019-04-14T05:36:23.759Z,43.30
2019-04-14T05:38:54.077Z,43.85
2019-04-14T05:41:24.444Z,42.53
2019-04-14T05:44:31.823Z,40.33
2019-04-14T05:47:02.307Z,41.05
2019-04-14T05:49:40.961Z,42.80
2019-04-14T05:52:03.390Z,42.35
2019-04-14T05:54:33.958Z,42.53
2019-04-14T05:57:04.426Z,45.12
2019-04-14T05:59:33.903Z,44.33
2019-04-14T06:02:03.207Z,43.63
2019-04-14T06:04:33.178Z,43.63
2019-04-14T06:07:02.637Z,41.73
2019-04-14T06:12:21.444Z,43.70
2019-04-14T06:14:50.772Z,44.65
2019-04-14T06:17:20.088Z,45.50
2019-04-14T06:19:49.425Z,43.28
2019-04-14T06:22:18.751Z,47.15
2019-04-14T06:24:48.102Z,45.65
2019-04-14T06:27:17.433Z,44.75
2019-04-14T06:29:48.305Z,45.25
2019-04-14T06:35:19.081Z,42.58
2019-04-14T06:38:05.967Z,43.63
2019-04-14T06:40:37.135Z,42.73
2019-04-14T06:43:06.469Z,42.78
2019-04-14T06:45:36.841Z,42.05
2019-04-14T06:48:06.179Z,39.03
2019-04-14T06:50:35.483Z,42.38
2019-04-14T06:53:05.377Z,38.67
2019-04-14T06:55:34.675Z,42.57
2019-04-14T06:58:04.072Z,40.17
2019-04-14T07:00:33.451Z,39.00
2019-04-14T07:03:02.855Z,40.00
2019-04-14T07:05:32.191Z,38.67
2019-04-14T07:08:01.522Z,38.25
2019-04-14T07:10:30.859Z,37.53
2019-04-14T07:13:00.165Z,37.83
2019-04-14T07:15:29.496Z,39.65
2019-04-14T07:17:59.868Z,37.05
2019-04-14T07:20:29.212Z,37.60
2019-04-14T07:22:58.516Z,39.35
2019-04-14T07:25:27.844Z,37.85
2019-04-14T07:27:57.173Z,38.50
2019-04-14T07:30:44.558Z,37.65
2019-04-14T07:33:30.458Z,38.45
2019-04-14T07:36:10.249Z,37.73
2019-04-14T07:38:42.329Z,39.83
2019-04-14T07:41:13.368Z,39.08
2019-04-14T07:43:47.135Z,39.18
2019-04-14T07:46:34.634Z,39.48
2019-04-14T07:49:05.607Z,47.27
2019-04-14T07:51:51.621Z,62.35
2019-04-14T07:54:25.281Z,61.40
2019-04-14T07:56:59.155Z,39.35
2019-04-14T07:59:30.136Z,37.70
2019-04-14T08:02:04.239Z,39.13
2019-04-14T08:04:35.216Z,39.70
2019-04-14T08:07:04.648Z,38.98
2019-04-14T08:09:33.958Z,38.60
2019-04-14T08:12:03.291Z,37.93
2019-04-14T08:14:32.590Z,38.78
2019-04-14T08:17:01.923Z,37.67
2019-04-14T08:19:31.270Z,36.33
2019-04-14T08:22:00.650Z,39.13
2019-04-14T08:24:29.944Z,39.03
2019-04-14T08:26:59.284Z,39.03
2019-04-14T08:29:28.660Z,38.48
2019-04-14T08:31:58.006Z,37.67
2019-04-14T08:34:27.321Z,37.28
2019-04-14T08:36:56.737Z,37.17
2019-04-14T08:39:27.092Z,39.08
2019-04-14T08:41:58.073Z,38.15
2019-04-14T08:44:29.098Z,39.60
2019-04-14T08:47:02.781Z,37.98
2019-04-14T08:49:36.193Z,38.78
2019-04-14T08:52:12.638Z,37.95
2019-04-14T08:54:45.588Z,37.88
2019-04-14T08:57:32.808Z,38.60
2019-04-14T09:00:03.872Z,37.78
2019-04-14T09:02:42.330Z,34.88
2019-04-14T09:05:13.413Z,37.10
2019-04-14T09:07:44.445Z,36.10
2019-04-14T09:10:15.421Z,36.05
2019-04-14T09:12:46.392Z,36.50
2019-04-14T09:15:15.731Z,35.73
2019-04-14T09:17:45.205Z,35.10
2019-04-14T09:20:14.616Z,39.73
2019-04-14T09:22:43.906Z,35.28
2019-04-14T09:25:13.451Z,37.10
2019-04-14T09:27:42.750Z,36.73
2019-04-14T09:30:12.724Z,35.80
2019-04-14T09:32:42.026Z,36.03
2019-04-14T09:35:11.625Z,35.33
2019-04-14T09:37:40.965Z,37.10
2019-04-14T09:40:10.611Z,36.90
2019-04-14T09:42:39.951Z,37.73
2019-04-14T09:45:09.487Z,36.00
2019-04-14T09:47:38.993Z,36.30
2019-04-14T09:50:08.535Z,35.58
2019-04-14T09:52:37.960Z,62.27
2019-04-14T09:55:07.500Z,36.70
2019-04-14T09:57:36.912Z,35.63
2019-04-14T10:00:07.516Z,36.15
2019-04-14T10:02:36.981Z,35.88
2019-04-14T10:05:07.149Z,34.85
2019-04-14T10:07:36.820Z,34.20
2019-04-14T10:10:07.945Z,35.63
2019-04-14T10:12:37.399Z,34.35
2019-04-14T10:15:07.272Z,34.70
2019-04-14T10:17:36.646Z,35.50
2019-04-14T10:20:06.639Z,33.28
2019-04-14T10:22:35.956Z,33.50
2019-04-14T10:25:06.633Z,31.62
2019-04-14T10:27:35.952Z,31.80
2019-04-14T10:30:07.233Z,31.42
2019-04-14T10:32:36.533Z,43.45
2019-04-14T10:35:07.114Z,31.90
2019-04-14T10:37:36.457Z,33.13
2019-04-14T10:40:06.607Z,31.20
2019-04-14T10:42:36.077Z,32.63
2019-04-14T10:45:07.727Z,33.48
2019-04-14T10:47:37.064Z,33.10
2019-04-14T10:50:06.812Z,33.35
2019-04-14T10:52:36.157Z,32.73
2019-04-14T10:55:07.347Z,33.73
2019-04-14T10:57:36.952Z,34.05
2019-04-14T11:00:09.469Z,31.27
2019-04-14T11:02:38.918Z,32.40
2019-04-14T11:05:08.400Z,32.65
2019-04-14T11:07:37.720Z,32.28
2019-04-14T11:10:08.549Z,31.12
2019-04-14T11:12:37.956Z,29.32
2019-04-14T11:15:08.699Z,29.77
2019-04-14T11:17:38.107Z,31.05
2019-04-14T11:20:08.271Z,30.17
2019-04-14T11:22:37.646Z,30.55
2019-04-14T11:25:07.226Z,32.80
2019-04-14T11:27:36.541Z,32.53
2019-04-14T11:30:09.547Z,31.48
2019-04-14T11:32:43.427Z,30.68
2019-04-14T11:35:16.531Z,32.53
2019-04-14T11:38:06.372Z,30.52
2019-04-14T11:40:56.826Z,30.68
2019-04-14T11:43:29.035Z,30.60
2019-04-14T11:45:58.591Z,31.48
2019-04-14T11:48:28.054Z,30.48
2019-04-14T11:50:57.396Z,30.57
2019-04-14T11:53:27.839Z,30.43
2019-04-14T11:55:57.173Z,29.85
2019-04-14T11:58:29.046Z,29.07
2019-04-14T12:01:17.541Z,29.15
2019-04-14T12:03:54.269Z,28.77
2019-04-14T12:06:41.172Z,28.45
2019-04-14T12:09:14.865Z,29.98
2019-04-14T12:11:44.181Z,27.77
2019-04-14T12:14:13.503Z,30.27
2019-04-14T12:16:42.837Z,29.98
2019-04-14T12:19:12.184Z,29.42
2019-04-14T12:21:41.600Z,29.18
2019-04-14T12:24:10.913Z,27.77
2019-04-14T12:26:40.429Z,29.20
2019-04-14T12:29:09.813Z,29.82
2019-04-14T12:31:39.817Z,28.35
2019-04-14T12:34:09.193Z,28.65
2019-04-14T12:36:38.794Z,26.48
2019-04-14T12:39:19.836Z,27.30
2019-04-14T12:41:54.796Z,27.00
2019-04-14T12:46:36.345Z,27.42
2019-04-14T12:49:15.949Z,28.35
2019-04-14T12:51:55.981Z,29.82
2019-04-14T12:54:27.011Z,27.77
2019-04-14T12:56:59.322Z,28.87
2019-04-14T12:59:28.731Z,29.18
2019-04-14T13:02:11.123Z,28.87
2019-04-14T13:04:39.974Z,29.77
2019-04-14T13:07:09.316Z,30.15
2019-04-14T13:09:38.793Z,30.82
2019-04-14T13:12:10.311Z,29.37
2019-04-14T13:14:39.131Z,29.20
2019-04-14T13:17:08.607Z,29.60
2019-04-14T13:19:37.984Z,29.00
2019-04-14T13:22:07.469Z,28.65
2019-04-14T13:24:36.873Z,28.85
2019-04-14T13:27:06.221Z,28.92
2019-04-14T13:29:35.597Z,28.67
2019-04-14T13:32:06.147Z,29.45
2019-04-14T13:37:04.221Z,29.92
2019-04-14T13:39:33.608Z,29.25
2019-04-14T13:42:02.982Z,28.87
2019-04-14T13:44:32.592Z,28.73
2019-04-14T13:47:01.924Z,28.23
2019-04-14T13:49:31.223Z,33.30
2019-04-14T13:52:00.573Z,29.50
2019-04-14T13:54:29.961Z,28.70
2019-04-14T13:56:59.301Z,64.70
2019-04-14T13:59:28.635Z,33.28
2019-04-14T14:01:58.030Z,27.52
2019-04-14T14:04:27.811Z,27.67
2019-04-14T14:06:57.222Z,27.32
2019-04-14T14:09:26.554Z,28.12
2019-04-14T14:12:03.481Z,27.93
2019-04-14T14:14:34.422Z,28.12
2019-04-14T14:17:21.784Z,34.30
2019-04-14T14:19:58.455Z,29.27
2019-04-14T14:22:45.595Z,27.25
2019-04-14T14:25:16.652Z,27.40
2019-04-14T14:27:45.969Z,24.45
2019-04-14T14:30:17.013Z,23.62
2019-04-14T14:32:46.329Z,23.18
2019-04-14T14:35:15.653Z,22.00
2019-04-14T14:37:45.002Z,22.07
2019-04-14T14:40:14.664Z,21.27
2019-04-14T14:42:45.154Z,21.85
2019-04-14T14:45:25.269Z,20.23
2019-04-14T14:47:59.229Z,19.85
2019-04-14T14:50:31.178Z,18.37
2019-04-14T14:53:11.481Z,18.90
2019-04-14T14:55:31.660Z,17.90
2019-04-14T14:58:01.005Z,17.52
2019-04-14T15:00:31.968Z,18.65
2019-04-14T15:03:01.307Z,17.95
2019-04-14T15:05:30.703Z,17.02
2019-04-14T15:08:00.018Z,16.42
2019-04-14T15:10:29.408Z,17.20
2019-04-14T15:12:58.988Z,16.50
2019-04-14T15:15:28.367Z,15.75
2019-04-14T15:17:57.774Z,16.35
2019-04-14T15:20:27.155Z,16.07
2019-04-14T15:22:56.500Z,16.60
2019-04-14T15:25:25.904Z,14.78
2019-04-14T15:27:55.282Z,16.07
2019-04-14T15:30:24.785Z,16.07
2019-04-14T15:32:54.246Z,16.50
2019-04-14T15:35:23.624Z,18.65
2019-04-14T15:37:52.963Z,18.55
2019-04-14T15:40:22.393Z,17.40
2019-04-14T15:42:51.692Z,17.67
2019-04-14T15:45:21.098Z,18.05
2019-04-14T15:47:50.445Z,17.82
2019-04-14T15:50:19.744Z,18.20
2019-04-14T15:52:49.089Z,17.62
2019-04-14T15:55:19.222Z,18.02
2019-04-14T15:57:50.332Z,17.27
2019-04-14T16:00:27.214Z,19.00
2019-04-14T16:03:14.512Z,16.85
2019-04-14T16:05:45.473Z,17.67
2019-04-14T16:08:16.444Z,17.65
2019-04-14T16:11:02.422Z,17.48
2019-04-14T16:13:39.186Z,17.32
2019-04-14T16:16:10.176Z,17.65
2019-04-14T16:18:47.442Z,17.32
2019-04-14T16:21:19.108Z,17.02
2019-04-14T16:23:50.852Z,17.02
2019-04-14T16:26:21.255Z,17.37
2019-04-14T16:28:54.946Z,17.32
2019-04-14T16:31:42.160Z,17.55
2019-04-14T16:34:16.770Z,16.57
2019-04-14T16:36:47.887Z,16.73
2019-04-14T16:39:18.663Z,16.05
2019-04-14T16:41:48.118Z,15.55
2019-04-14T16:44:17.535Z,16.30
2019-04-14T16:46:48.081Z,14.90
2019-04-14T16:49:17.394Z,15.15
2019-04-14T16:51:48.379Z,15.00
2019-04-14T16:54:19.336Z,13.98
2019-04-14T16:56:56.032Z,14.30
2019-04-14T16:59:25.519Z,15.98
2019-04-14T17:01:54.822Z,15.50
2019-04-14T17:04:24.240Z,14.23
2019-04-14T17:06:53.674Z,13.80
2019-04-14T17:09:23.042Z,13.60
2019-04-14T17:11:52.990Z,13.40
2019-04-14T17:14:24.103Z,13.15
2019-04-14T17:17:13.462Z,13.65
2019-04-14T17:20:02.774Z,12.20
2019-04-14T17:25:32.874Z,13.48
2019-04-14T17:28:03.827Z,12.20
2019-04-14T17:30:52.316Z,13.40
2019-04-14T17:33:23.300Z,12.15
2019-04-14T17:35:54.403Z,12.35
2019-04-14T17:38:37.547Z,12.43
2019-04-14T17:41:12.333Z,13.38
2019-04-14T17:43:49.167Z,12.68
2019-04-14T17:46:20.383Z,12.95
2019-04-14T17:49:06.878Z,13.53
2019-04-14T17:51:37.872Z,12.70
2019-04-14T17:54:11.850Z,13.32
2019-04-14T17:56:42.846Z,12.85
2019-04-14T17:59:19.853Z,18.50
2019-04-14T18:01:57.046Z,13.28
2019-04-14T18:04:33.966Z,12.58
2019-04-14T18:07:05.126Z,12.53
2019-04-14T18:09:42.558Z,12.75
2019-04-14T18:12:25.601Z,12.40
2019-04-14T18:15:11.979Z,12.18
2019-04-14T18:20:10.687Z,12.80
2019-04-14T18:22:40.121Z,12.25
2019-04-14T18:25:09.728Z,12.40
2019-04-14T18:27:43.683Z,13.32
2019-04-14T18:30:17.461Z,14.43
2019-04-14T18:32:54.698Z,14.10
2019-04-14T18:35:25.701Z,14.40
2019-04-14T18:37:56.649Z,14.73
2019-04-14T18:40:27.701Z,13.62
2019-04-14T18:43:10.961Z,13.55
2019-04-14T18:45:42.978Z,12.95
2019-04-14T18:48:20.538Z,13.38
2019-04-14T18:51:01.107Z,12.90
2019-04-14T18:53:48.225Z,14.50
2019-04-14T18:56:31.940Z,13.72
2019-04-14T18:59:06.392Z,15.08
2019-04-14T19:01:38.002Z,14.87
2019-04-14T19:04:08.912Z,17.15
2019-04-14T19:06:39.758Z,16.50
2019-04-14T19:11:42.315Z,16.65
2019-04-14T19:14:14.224Z,17.00
2019-04-14T19:16:46.206Z,17.40
2019-04-14T19:19:18.134Z,17.67
2019-04-14T19:21:48.295Z,18.10
2019-04-14T19:24:18.889Z,18.50
2019-04-14T19:26:49.011Z,16.17
2019-04-14T19:29:19.013Z,15.23
2019-04-14T19:31:49.287Z,14.78
2019-04-14T19:34:19.767Z,14.98
2019-04-14T19:36:50.138Z,15.03
2019-04-14T19:39:20.420Z,14.87
2019-04-14T19:41:50.658Z,16.05
2019-04-14T19:44:20.700Z,15.55
2019-04-14T19:46:50.119Z,17.02
2019-04-14T19:49:19.449Z,17.12
2019-04-14T19:51:48.874Z,17.37
2019-04-14T19:54:18.652Z,17.32
2019-04-14T19:56:48.319Z,15.98
2019-04-14T19:59:17.769Z,16.82
2019-04-14T20:01:47.101Z,17.65
2019-04-14T20:04:16.418Z,18.23
2019-04-14T20:06:45.791Z,18.95
2019-04-14T20:09:15.194Z,16.27
2019-04-14T20:11:45.220Z,17.52
2019-04-14T20:14:14.553Z,18.62
2019-04-14T20:17:01.745Z,17.95
2019-04-14T20:19:35.867Z,17.65
2019-04-14T20:22:06.922Z,17.35
2019-04-14T20:24:37.952Z,17.92
2019-04-14T20:27:12.004Z,18.05
2019-04-14T20:29:47.153Z,17.05
2019-04-14T20:32:22.510Z,18.10
2019-04-14T20:34:51.844Z,17.90
2019-04-14T20:37:21.143Z,19.10
2019-04-14T20:39:50.609Z,19.45
2019-04-14T20:42:19.982Z,18.35
2019-04-14T20:44:49.308Z,19.75
2019-04-14T20:47:18.843Z,18.75
2019-04-14T20:49:48.176Z,20.62
2019-04-14T20:52:17.474Z,17.65
2019-04-14T20:54:46.885Z,19.45
2019-04-14T20:57:16.259Z,19.20
2019-04-14T20:59:45.691Z,19.10
2019-04-14T21:02:31.609Z,20.60
2019-04-14T21:05:18.821Z,21.17
2019-04-14T21:07:49.870Z,19.62
2019-04-14T21:10:33.235Z,20.48
2019-04-14T21:13:10.192Z,21.30
2019-04-14T21:15:41.232Z,20.12
2019-04-14T21:18:18.051Z,21.20
2019-04-14T21:20:49.036Z,20.72
2019-04-14T21:23:32.217Z,20.68
2019-04-14T21:26:06.180Z,20.55
2019-04-14T21:28:42.769Z,19.98
2019-04-14T21:31:13.753Z,21.20
2019-04-14T21:33:59.735Z,20.57
2019-04-14T21:36:30.702Z,20.82
2019-04-14T21:39:07.781Z,20.80
2019-04-14T21:41:39.103Z,20.32
2019-04-14T21:44:08.417Z,21.85
2019-04-14T21:46:37.725Z,22.22
2019-04-14T21:49:07.074Z,21.57
2019-04-14T21:51:54.499Z,21.93
2019-04-14T21:54:23.968Z,22.07
2019-04-14T21:56:54.931Z,21.45
2019-04-14T21:59:28.421Z,22.07
2019-04-14T22:02:16.761Z,20.90
2019-04-14T22:05:03.003Z,20.37
2019-04-14T22:07:34.045Z,20.30
2019-04-14T22:10:06.136Z,22.27
2019-04-14T22:12:35.646Z,21.48
2019-04-14T22:15:06.592Z,20.65
2019-04-14T22:17:35.990Z,21.20
2019-04-14T22:20:06.139Z,22.22
2019-04-14T22:22:35.480Z,21.90
2019-04-14T22:25:07.120Z,22.45
2019-04-14T22:27:37.479Z,21.30
2019-04-14T22:30:08.800Z,22.32
2019-04-14T22:32:38.138Z,21.37
2019-04-14T22:35:07.612Z,21.73
2019-04-14T22:37:36.923Z,21.42
2019-04-14T22:40:06.689Z,22.10
2019-04-14T22:42:35.988Z,22.32
2019-04-14T22:45:07.554Z,21.90
2019-04-14T22:47:36.853Z,21.00
2019-04-14T22:50:07.035Z,21.85
2019-04-14T22:52:36.403Z,21.73
2019-04-14T22:55:07.487Z,23.70
2019-04-14T22:57:36.772Z,21.82
2019-04-14T23:00:13.521Z,22.15
2019-04-14T23:03:00.965Z,23.52
2019-04-14T23:05:48.575Z,24.07
2019-04-14T23:08:35.944Z,23.83
2019-04-14T23:11:16.168Z,24.45
2019-04-14T23:14:03.889Z,25.43
2019-04-14T23:16:51.086Z,21.48
2019-04-14T23:19:27.808Z,23.10
2019-04-14T23:21:58.752Z,22.70
2019-04-14T23:24:32.746Z,21.87
2019-04-14T23:27:02.224Z,22.42
2019-04-14T23:29:31.549Z,22.62
2019-04-14T23:32:00.848Z,22.85
2019-04-14T23:34:30.192Z,24.57
2019-04-14T23:36:59.501Z,21.90
2019-04-14T23:39:28.824Z,23.07
2019-04-14T23:41:58.196Z,23.50
2019-04-14T23:44:28.592Z,23.65
2019-04-14T23:46:57.927Z,23.18
2019-04-14T23:49:27.257Z,23.57
2019-04-14T23:51:56.589Z,23.20
2019-04-14T23:54:25.886Z,22.40
2019-04-14T23:57:04.725Z,22.80
2019-04-14T23:59:26.252Z,22.07
